createdAt,value
2022-11-16T00:01:28.030Z,97535.84
2022-11-16T00:03:59.489Z,97538.72
2022-11-16T00:06:28.308Z,97538.97
2022-11-16T00:09:20.290Z,97536.78
2022-11-16T00:11:51.831Z,97549.53
2022-11-16T00:14:21.205Z,97547.81
2022-11-16T00:16:49.387Z,97543.63
2022-11-16T00:19:17.162Z,97554.31
2022-11-16T00:21:44.926Z,97547.31
2022-11-16T00:24:15.474Z,97549.66
2022-11-16T00:26:44.146Z,97549.16
2022-11-16T00:29:23.998Z,97544.59
2022-11-16T00:31:53.691Z,97552.63
2022-11-16T00:34:23.118Z,97544.84
2022-11-16T00:36:51.151Z,97545.91
2022-11-16T00:39:20.792Z,97552.47
2022-11-16T00:41:49.588Z,97550.09
2022-11-16T00:44:18.785Z,97546.22
2022-11-16T00:46:46.546Z,97548.03
2022-11-16T00:49:14.528Z,97543.25
2022-11-16T00:51:42.243Z,97550.59
2022-11-16T00:54:10.633Z,97543.91
2022-11-16T00:56:39.948Z,97539.84
2022-11-16T00:59:08.298Z,97541.44
2022-11-16T01:01:35.951Z,97540.91
2022-11-16T01:04:03.960Z,97522.56
2022-11-16T01:06:31.549Z,97530.72
2022-11-16T01:09:01.768Z,97515.38
2022-11-16T01:11:47.767Z,97502.09
2022-11-16T01:14:16.312Z,97507.25
2022-11-16T01:16:44.389Z,97499.38
2022-11-16T01:19:12.055Z,97504.63
2022-11-16T01:21:39.619Z,97506.19
2022-11-16T01:24:07.604Z,97512.84
2022-11-16T01:26:36.161Z,97504.03
2022-11-16T01:29:05.442Z,97503.78
2022-11-16T01:31:37.740Z,97503.25
2022-11-16T01:34:06.156Z,97498.16
2022-11-16T01:36:36.512Z,97492.53
2022-11-16T01:39:05.506Z,97491.22
2022-11-16T01:41:45.165Z,97495.25
2022-11-16T01:44:34.039Z,97490.59
2022-11-16T01:47:12.932Z,97489.97
2022-11-16T01:49:46.051Z,97504.44
2022-11-16T01:52:20.668Z,97511.78
2022-11-16T01:54:52.825Z,97497.97
2022-11-16T01:57:41.317Z,97503.78
2022-11-16T02:00:13.126Z,97493.25
2022-11-16T02:02:51.737Z,97496.03
2022-11-16T02:06:11.565Z,97497.00
2022-11-16T02:09:34.916Z,97496.47
2022-11-16T02:12:36.138Z,97478.53
2022-11-16T02:15:07.057Z,97477.56
2022-11-16T02:17:58.782Z,97468.16
2022-11-16T02:21:03.494Z,97476.56
2022-11-16T02:24:22.272Z,97475.34
2022-11-16T02:27:17.427Z,97465.81
2022-11-16T02:29:56.822Z,97473.91
2022-11-16T02:32:56.265Z,97466.88
2022-11-16T02:35:31.677Z,97470.56
2022-11-16T02:38:22.898Z,97469.06
2022-11-16T02:41:02.612Z,97474.91
2022-11-16T02:43:40.116Z,97485.47
2022-11-16T02:46:17.005Z,97479.22
2022-11-16T02:48:50.432Z,97477.72
2022-11-16T02:51:20.649Z,97474.59
2022-11-16T02:54:20.241Z,97475.75
2022-11-16T02:57:20.385Z,97478.72
2022-11-16T02:59:52.104Z,97481.19
2022-11-16T03:02:41.793Z,97480.94
2022-11-16T03:05:31.832Z,97480.75
2022-11-16T03:08:15.826Z,97480.75
2022-11-16T03:11:30.120Z,97477.91
2022-11-16T03:14:06.771Z,97462.78
2022-11-16T03:16:42.423Z,97455.63
2022-11-16T03:19:15.478Z,97465.25
2022-11-16T03:22:18.150Z,97465.16
2022-11-16T03:24:46.766Z,97464.19
2022-11-16T03:27:44.977Z,97462.47
2022-11-16T03:30:24.277Z,97462.88
2022-11-16T03:33:24.541Z,97464.25
2022-11-16T03:35:56.966Z,97458.84
2022-11-16T03:38:27.543Z,97462.75
2022-11-16T03:41:02.559Z,97454.56
2022-11-16T03:43:33.010Z,97447.31
2022-11-16T03:46:02.470Z,97446.22
2022-11-16T03:48:37.539Z,97438.94
2022-11-16T03:51:12.280Z,97444.47
2022-11-16T03:53:41.268Z,97446.16
2022-11-16T03:56:11.343Z,97433.00
2022-11-16T03:58:40.446Z,97432.13
2022-11-16T04:01:08.249Z,97440.50
2022-11-16T04:03:36.060Z,97439.97
2022-11-16T04:06:22.989Z,97443.81
2022-11-16T04:09:09.833Z,97452.97
2022-11-16T04:11:58.962Z,97453.53
2022-11-16T04:14:46.972Z,97452.00
2022-11-16T04:17:38.143Z,97456.53
2022-11-16T04:20:25.247Z,97464.50
2022-11-16T04:23:34.284Z,97469.03
2022-11-16T04:26:07.333Z,97478.53
2022-11-16T04:28:38.196Z,97475.50
2022-11-16T04:31:25.949Z,97479.25
2022-11-16T04:34:20.283Z,97484.72
2022-11-16T04:37:10.465Z,97469.03
2022-11-16T04:39:39.666Z,97478.88
2022-11-16T04:42:19.335Z,97471.81
2022-11-16T04:45:08.932Z,97468.25
2022-11-16T04:47:44.342Z,97476.91
2022-11-16T04:50:12.564Z,97491.38
2022-11-16T04:52:41.500Z,97498.34
2022-11-16T04:55:18.668Z,97497.16
2022-11-16T04:57:48.896Z,97489.59
2022-11-16T05:00:19.131Z,97479.47
2022-11-16T05:02:47.545Z,97488.38
2022-11-16T05:05:15.325Z,97482.09
2022-11-16T05:07:45.231Z,97478.72
2022-11-16T05:10:22.675Z,97479.84
2022-11-16T05:12:51.927Z,97471.84
2022-11-16T05:15:19.858Z,97464.75
2022-11-16T05:17:48.695Z,97477.13
2022-11-16T05:20:38.884Z,97484.16
2022-11-16T05:23:28.411Z,97483.91
2022-11-16T05:25:59.093Z,97496.31
2022-11-16T05:28:27.445Z,97478.19
2022-11-16T05:30:55.415Z,97485.47
2022-11-16T05:33:24.654Z,97489.16
2022-11-16T05:35:52.753Z,97490.63
2022-11-16T05:38:21.897Z,97497.31
2022-11-16T05:40:54.049Z,97506.53
2022-11-16T05:43:46.536Z,97496.53
2022-11-16T05:46:19.098Z,97499.03
2022-11-16T05:48:46.844Z,97500.00
2022-11-16T05:51:14.461Z,97500.69
2022-11-16T05:53:44.111Z,97493.31
2022-11-16T05:56:15.993Z,97494.88
2022-11-16T05:58:44.583Z,97495.28
2022-11-16T06:01:12.242Z,97498.50
2022-11-16T06:03:40.002Z,97499.38
2022-11-16T06:06:08.698Z,97496.19
2022-11-16T06:08:37.291Z,97499.91
2022-11-16T06:11:09.706Z,97492.13
2022-11-16T06:13:38.146Z,97499.03
2022-11-16T06:16:07.687Z,97502.84
2022-11-16T06:18:42.610Z,97504.09
2022-11-16T06:21:12.315Z,97510.81
2022-11-16T06:23:41.286Z,97507.34
2022-11-16T06:26:09.941Z,97507.66
2022-11-16T06:28:38.366Z,97513.88
2022-11-16T06:31:06.776Z,97510.19
2022-11-16T06:33:38.491Z,97515.50
2022-11-16T06:36:11.152Z,97515.75
2022-11-16T06:38:38.863Z,97514.13
2022-11-16T06:41:07.967Z,97511.09
2022-11-16T06:43:41.598Z,97511.28
2022-11-16T06:46:09.472Z,97518.38
2022-11-16T06:48:39.689Z,97516.41
2022-11-16T06:51:11.887Z,97522.47
2022-11-16T06:53:40.354Z,97526.56
2022-11-16T06:56:12.473Z,97522.28
2022-11-16T06:58:44.458Z,97528.72
2022-11-16T07:01:13.949Z,97530.88
2022-11-16T07:03:44.022Z,97530.91
2022-11-16T07:06:13.709Z,97545.97
2022-11-16T07:08:44.966Z,97544.47
2022-11-16T07:11:15.683Z,97546.44
2022-11-16T07:13:43.923Z,97549.78
2022-11-16T07:16:12.459Z,97547.09
2022-11-16T07:18:47.073Z,97558.41
2022-11-16T07:21:17.336Z,97565.91
2022-11-16T07:23:46.346Z,97568.03
2022-11-16T07:26:19.454Z,97570.78
2022-11-16T07:28:53.768Z,97575.97
2022-11-16T07:31:24.140Z,97572.06
2022-11-16T07:34:11.659Z,97573.59
2022-11-16T07:36:45.663Z,97575.97
2022-11-16T07:39:13.545Z,97580.44
2022-11-16T07:41:46.800Z,97583.44
2022-11-16T07:44:25.172Z,97581.06
2022-11-16T07:47:06.980Z,97575.47
2022-11-16T07:49:36.667Z,97586.44
2022-11-16T07:52:11.824Z,97593.78
2022-11-16T07:54:59.099Z,97598.16
2022-11-16T07:57:29.079Z,97598.59
2022-11-16T08:00:00.756Z,97603.56
2022-11-16T08:02:31.548Z,97600.59
2022-11-16T08:05:00.303Z,97605.59
2022-11-16T08:07:29.373Z,97611.28
2022-11-16T08:09:58.068Z,97605.81
2022-11-16T08:12:26.263Z,97605.53
2022-11-16T08:14:55.467Z,97601.47
2022-11-16T08:17:24.667Z,97608.84
2022-11-16T08:19:54.512Z,97600.47
2022-11-16T08:22:22.521Z,97602.28
2022-11-16T08:24:50.447Z,97601.16
2022-11-16T08:27:19.347Z,97593.06
2022-11-16T08:29:51.724Z,97599.31
2022-11-16T08:32:19.316Z,97598.88
2022-11-16T08:34:47.374Z,97598.50
2022-11-16T08:37:17.302Z,97602.84
2022-11-16T08:39:46.180Z,97601.84
2022-11-16T08:42:14.152Z,97605.03
2022-11-16T08:44:46.695Z,97609.47
2022-11-16T08:47:16.480Z,97606.03
2022-11-16T08:49:55.927Z,97608.72
2022-11-16T08:52:25.647Z,97615.88
2022-11-16T08:54:54.611Z,97621.03
2022-11-16T08:57:22.651Z,97620.19
2022-11-16T08:59:54.949Z,97621.53
2022-11-16T09:02:25.519Z,97625.22
2022-11-16T09:04:54.084Z,97622.53
2022-11-16T09:07:22.304Z,97630.16
2022-11-16T09:09:50.192Z,97632.00
2022-11-16T09:12:17.943Z,97634.59
2022-11-16T09:14:45.737Z,97627.69
2022-11-16T09:17:14.284Z,97630.41
2022-11-16T09:19:44.175Z,97618.81
2022-11-16T09:22:11.750Z,97623.50
2022-11-16T09:24:39.980Z,97620.69
2022-11-16T09:27:07.561Z,97615.25
2022-11-16T09:29:35.115Z,97613.91
2022-11-16T09:32:04.801Z,97622.44
2022-11-16T09:34:35.224Z,97621.66
2022-11-16T09:37:02.982Z,97631.06
2022-11-16T09:39:32.533Z,97630.63
2022-11-16T09:42:45.859Z,97637.16
2022-11-16T09:46:04.025Z,97629.53
2022-11-16T09:48:35.902Z,97635.09
2022-11-16T09:51:08.258Z,97638.06
2022-11-16T09:53:46.596Z,97638.03
2022-11-16T09:56:25.808Z,97637.81
2022-11-16T09:59:13.563Z,97638.06
2022-11-16T10:01:57.116Z,97632.00
2022-11-16T10:04:43.852Z,97626.44
2022-11-16T10:07:25.062Z,97628.69
2022-11-16T10:09:52.912Z,97624.22
2022-11-16T10:12:46.257Z,97618.03
2022-11-16T10:15:47.320Z,97621.72
2022-11-16T10:18:34.159Z,97617.63
2022-11-16T10:21:16.105Z,97607.84
2022-11-16T10:24:14.769Z,97602.19
2022-11-16T10:26:55.798Z,97603.19
2022-11-16T10:29:43.604Z,97590.31
2022-11-16T10:32:17.723Z,97596.94
2022-11-16T10:35:01.136Z,97595.31
2022-11-16T10:37:32.595Z,97590.59
2022-11-16T10:40:19.648Z,97589.84
2022-11-16T10:42:55.393Z,97587.31
2022-11-16T10:45:40.779Z,97582.00
2022-11-16T10:48:22.480Z,97575.47
2022-11-16T10:50:52.322Z,97559.81
2022-11-16T10:53:39.999Z,97567.63
2022-11-16T10:56:13.759Z,97575.63
2022-11-16T10:58:56.293Z,97570.88
2022-11-16T11:01:43.309Z,97561.63
2022-11-16T11:04:29.621Z,97556.53
2022-11-16T11:07:22.343Z,97558.38
2022-11-16T11:09:54.313Z,97558.91
2022-11-16T11:12:39.426Z,97565.25
2022-11-16T11:15:26.440Z,97558.09
2022-11-16T11:18:23.154Z,97560.09
2022-11-16T11:20:58.048Z,97551.59
2022-11-16T11:23:27.321Z,97553.44
2022-11-16T11:25:59.288Z,97547.97
2022-11-16T11:28:31.945Z,97539.09
2022-11-16T11:31:34.368Z,97547.09
2022-11-16T11:34:40.845Z,97539.38
2022-11-16T11:37:24.651Z,97543.09
2022-11-16T11:40:20.405Z,97537.09
2022-11-16T11:43:05.625Z,97544.72
2022-11-16T11:45:45.283Z,97538.25
2022-11-16T11:48:49.766Z,97530.19
2022-11-16T11:51:31.428Z,97543.16
2022-11-16T11:54:01.457Z,97532.13
2022-11-16T11:56:33.330Z,97538.75
2022-11-16T11:59:03.594Z,97525.97
2022-11-16T12:02:18.189Z,97527.41
2022-11-16T12:05:23.598Z,97522.75
2022-11-16T12:08:21.463Z,97529.97
2022-11-16T12:10:53.361Z,97531.28
2022-11-16T12:13:59.109Z,97520.59
2022-11-16T12:16:43.206Z,97511.41
2022-11-16T12:19:41.882Z,97518.97
2022-11-16T12:22:56.554Z,97504.16
2022-11-16T12:26:13.573Z,97517.78
2022-11-16T12:29:06.081Z,97511.13
2022-11-16T12:31:39.565Z,97511.94
2022-11-16T12:35:03.487Z,97498.88
2022-11-16T12:37:55.674Z,97502.59
2022-11-16T12:41:12.073Z,97487.16
2022-11-16T12:44:11.552Z,97501.34
2022-11-16T12:47:06.136Z,97499.28
2022-11-16T12:49:42.433Z,97499.53
2022-11-16T12:52:31.604Z,97503.03
2022-11-16T12:55:45.650Z,97488.34
2022-11-16T12:58:33.371Z,97485.25
2022-11-16T13:01:22.140Z,97480.59
2022-11-16T13:04:30.424Z,97489.88
2022-11-16T13:07:10.733Z,97486.31
2022-11-16T13:09:46.438Z,97487.59
2022-11-16T13:12:19.680Z,97485.03
2022-11-16T13:14:50.507Z,97482.47
2022-11-16T13:17:33.536Z,97490.75
2022-11-16T13:20:28.613Z,97489.59
2022-11-16T13:23:15.891Z,97485.56
2022-11-16T13:26:10.292Z,97480.41
2022-11-16T13:28:58.678Z,97468.41
2022-11-16T13:32:02.611Z,97470.16
2022-11-16T13:34:34.725Z,97461.19
2022-11-16T13:37:34.338Z,97470.00
2022-11-16T13:40:01.879Z,97465.50
2022-11-16T13:42:33.955Z,97463.97
2022-11-16T13:45:22.202Z,97458.31
2022-11-16T13:47:54.991Z,97457.38
2022-11-16T13:50:37.527Z,97457.38
2022-11-16T13:56:09.585Z,97456.25
2022-11-16T13:58:47.858Z,97449.78
2022-11-16T14:01:17.701Z,97456.53
2022-11-16T14:03:51.337Z,97462.69
2022-11-16T14:06:25.255Z,97459.78
2022-11-16T14:08:58.249Z,97460.16
2022-11-16T14:11:38.703Z,97446.94
2022-11-16T14:14:51.558Z,97444.16
2022-11-16T14:18:21.321Z,97447.50
2022-11-16T14:20:58.416Z,97449.69
2022-11-16T14:24:00.677Z,97445.91
2022-11-16T14:27:00.324Z,97441.91
2022-11-16T14:30:05.911Z,97430.84
2022-11-16T14:32:46.184Z,97421.91
2022-11-16T14:35:35.016Z,97423.41
2022-11-16T14:38:17.648Z,97428.22
2022-11-16T14:40:57.749Z,97420.13
2022-11-16T14:43:40.815Z,97416.63
2022-11-16T14:46:21.932Z,97421.16
2022-11-16T14:48:50.473Z,97419.44
2022-11-16T14:51:33.967Z,97431.06
2022-11-16T14:54:16.206Z,97422.16
2022-11-16T14:57:13.031Z,97406.78
2022-11-16T14:59:42.736Z,97413.19
2022-11-16T15:02:26.562Z,97406.34
2022-11-16T15:04:54.748Z,97397.31
2022-11-16T15:07:29.077Z,97401.81
2022-11-16T15:10:04.774Z,97393.50
2022-11-16T15:12:42.065Z,97398.78
2022-11-16T15:15:13.063Z,97398.25
2022-11-16T15:17:51.618Z,97406.25
2022-11-16T15:20:23.392Z,97403.94
2022-11-16T15:22:57.896Z,97401.16
2022-11-16T15:25:46.971Z,97402.00
2022-11-16T15:28:27.007Z,97398.16
2022-11-16T15:31:01.919Z,97399.13
2022-11-16T15:33:40.780Z,97403.69
2022-11-16T15:36:39.037Z,97407.84
2022-11-16T15:39:22.721Z,97404.25
2022-11-16T15:41:51.752Z,97397.91
2022-11-16T15:44:22.631Z,97397.00
2022-11-16T15:46:54.861Z,97399.34
2022-11-16T15:49:40.548Z,97389.41
2022-11-16T15:52:08.261Z,97379.97
2022-11-16T15:54:55.514Z,97390.78
2022-11-16T15:57:25.007Z,97390.09
2022-11-16T15:59:56.413Z,97395.28
2022-11-16T16:02:31.678Z,97395.38
2022-11-16T16:04:59.296Z,97397.19
2022-11-16T16:07:38.996Z,97395.59
2022-11-16T16:10:19.100Z,97397.66
2022-11-16T16:12:59.234Z,97395.00
2022-11-16T16:15:36.572Z,97391.53
2022-11-16T16:18:35.963Z,97384.56
2022-11-16T16:21:04.435Z,97388.69
2022-11-16T16:23:33.192Z,97392.50
2022-11-16T16:26:04.892Z,97406.28
2022-11-16T16:28:32.636Z,97410.19
2022-11-16T16:31:00.304Z,97398.16
2022-11-16T16:33:29.702Z,97397.66
2022-11-16T16:35:57.327Z,97397.03
2022-11-16T16:38:24.980Z,97392.44
2022-11-16T16:40:53.050Z,97390.28
2022-11-16T16:43:20.889Z,97400.94
2022-11-16T16:45:48.916Z,97394.06
2022-11-16T16:48:17.012Z,97392.50
2022-11-16T16:50:44.615Z,97388.16
2022-11-16T16:53:13.958Z,97386.91
2022-11-16T16:55:47.562Z,97389.63
2022-11-16T16:58:16.193Z,97385.13
2022-11-16T17:00:44.222Z,97384.59
2022-11-16T17:03:12.106Z,97374.81
2022-11-16T17:05:39.761Z,97368.38
2022-11-16T17:08:07.740Z,97376.41
2022-11-16T17:10:39.009Z,97372.97
2022-11-16T17:13:06.773Z,97367.72
2022-11-16T17:15:34.357Z,97369.56
2022-11-16T17:18:02.548Z,97369.22
2022-11-16T17:20:30.261Z,97371.28
2022-11-16T17:22:58.006Z,97368.38
2022-11-16T17:25:25.600Z,97371.50
2022-11-16T17:27:53.173Z,97372.59
2022-11-16T17:30:21.876Z,97371.66
2022-11-16T17:32:49.459Z,97371.00
2022-11-16T17:35:17.217Z,97377.16
2022-11-16T17:37:44.844Z,97368.84
2022-11-16T17:40:13.130Z,97373.25
2022-11-16T17:42:40.945Z,97364.44
2022-11-16T17:45:09.145Z,97356.56
2022-11-16T17:47:36.684Z,97359.38
2022-11-16T17:50:04.571Z,97355.88
2022-11-16T17:52:32.126Z,97354.44
2022-11-16T17:54:59.816Z,97354.09
2022-11-16T17:57:27.388Z,97348.78
2022-11-16T17:59:54.965Z,97340.38
2022-11-16T18:02:22.522Z,97343.19
2022-11-16T18:04:51.454Z,97350.41
2022-11-16T18:07:19.363Z,97343.84
2022-11-16T18:09:47.105Z,97347.31
2022-11-16T18:12:14.918Z,97342.59
2022-11-16T18:14:44.524Z,97343.56
2022-11-16T18:17:25.680Z,97354.13
2022-11-16T18:19:53.861Z,97343.44
2022-11-16T18:22:21.799Z,97344.53
2022-11-16T18:24:50.658Z,97338.63
2022-11-16T18:27:18.203Z,97332.50
2022-11-16T18:29:45.768Z,97330.66
2022-11-16T18:32:13.472Z,97327.75
2022-11-16T18:34:41.094Z,97330.09
2022-11-16T18:37:09.108Z,97330.53
2022-11-16T18:39:36.666Z,97316.09
2022-11-16T18:42:04.414Z,97315.69
2022-11-16T18:44:31.979Z,97299.75
2022-11-16T18:46:59.526Z,97298.25
2022-11-16T18:49:27.059Z,97285.84
2022-11-16T18:51:54.881Z,97288.75
2022-11-16T18:54:22.447Z,97284.88
2022-11-16T18:56:50.038Z,97278.22
2022-11-16T18:59:17.755Z,97273.69
2022-11-16T19:01:45.405Z,97278.06
2022-11-16T19:04:13.148Z,97280.97
2022-11-16T19:06:40.743Z,97276.88
2022-11-16T19:09:09.658Z,97266.53
2022-11-16T19:11:37.409Z,97260.28
2022-11-16T19:14:07.397Z,97261.69
2022-11-16T19:16:35.715Z,97269.13
2022-11-16T19:19:04.359Z,97265.03
2022-11-16T19:21:32.597Z,97265.88
2022-11-16T19:24:00.226Z,97276.84
2022-11-16T19:26:29.115Z,97273.09
2022-11-16T19:28:57.968Z,97265.44
2022-11-16T19:31:28.896Z,97268.44
2022-11-16T19:34:06.776Z,97253.38
2022-11-16T19:36:36.990Z,97263.03
2022-11-16T19:39:05.971Z,97272.06
2022-11-16T19:41:34.179Z,97268.06
2022-11-16T19:44:02.328Z,97271.59
2022-11-16T19:46:33.237Z,97266.41
2022-11-16T19:49:02.649Z,97275.25
2022-11-16T19:51:34.151Z,97279.53
2022-11-16T19:54:02.807Z,97276.75
2022-11-16T19:56:31.387Z,97272.88
2022-11-16T19:59:00.332Z,97275.25
2022-11-16T20:01:29.513Z,97281.41
2022-11-16T20:04:01.106Z,97288.19
2022-11-16T20:06:32.959Z,97293.09
2022-11-16T20:09:08.834Z,97297.16
2022-11-16T20:11:39.794Z,97295.81
2022-11-16T20:14:11.654Z,97297.13
2022-11-16T20:16:42.780Z,97296.56
2022-11-16T20:19:11.391Z,97297.53
2022-11-16T20:21:43.550Z,97278.38
2022-11-16T20:24:15.129Z,97260.75
2022-11-16T20:26:47.157Z,97247.13
2022-11-16T20:29:17.359Z,97245.00
2022-11-16T20:31:46.356Z,97239.44
2022-11-16T20:38:40.347Z,97235.13
2022-11-16T20:41:15.762Z,97234.25
2022-11-16T20:43:45.973Z,97236.94
2022-11-16T20:46:17.073Z,97236.41
2022-11-16T20:48:45.860Z,97230.66
2022-11-16T20:51:19.244Z,97237.91
2022-11-16T20:53:49.097Z,97240.59
2022-11-16T20:56:19.621Z,97237.91
2022-11-16T20:58:49.297Z,97240.72
2022-11-16T21:01:28.496Z,97237.06
2022-11-16T21:04:03.150Z,97239.63
2022-11-16T21:06:32.084Z,97238.81
2022-11-16T21:09:01.054Z,97226.84
2022-11-16T21:11:52.261Z,97220.59
2022-11-16T21:14:25.901Z,97214.31
2022-11-16T21:16:54.438Z,97213.91
2022-11-16T21:19:22.293Z,97196.13
2022-11-16T21:21:50.138Z,97201.94
2022-11-16T21:24:18.246Z,97202.69
2022-11-16T21:26:46.271Z,97203.47
2022-11-16T21:29:14.002Z,97199.22
2022-11-16T21:31:41.762Z,97197.03
2022-11-16T21:34:12.072Z,97207.91
2022-11-16T21:36:39.802Z,97201.28
2022-11-16T21:39:08.035Z,97202.06
2022-11-16T21:41:35.974Z,97212.97
2022-11-16T21:44:07.016Z,97205.78
2022-11-16T21:46:35.165Z,97199.75
2022-11-16T21:49:03.167Z,97202.53
2022-11-16T21:51:30.934Z,97198.88
2022-11-16T21:53:58.544Z,97197.38
2022-11-16T21:56:27.016Z,97197.97
2022-11-16T21:58:55.268Z,97192.88
2022-11-16T22:01:24.283Z,97193.94
2022-11-16T22:04:11.338Z,97195.66
2022-11-16T22:06:57.337Z,97196.00
2022-11-16T22:09:25.470Z,97174.16
2022-11-16T22:11:53.872Z,97183.06
2022-11-16T22:14:21.651Z,97177.97
2022-11-16T22:16:49.688Z,97187.91
2022-11-16T22:19:17.564Z,97192.72
2022-11-16T22:21:45.130Z,97195.78
2022-11-16T22:24:13.116Z,97200.19
2022-11-16T22:26:41.322Z,97206.09
2022-11-16T22:29:08.880Z,97198.91
2022-11-16T22:31:36.561Z,97192.69
2022-11-16T22:34:04.203Z,97183.16
2022-11-16T22:36:31.775Z,97175.63
2022-11-16T22:38:59.491Z,97180.47
2022-11-16T22:41:27.570Z,97177.25
2022-11-16T22:43:55.604Z,97179.38
2022-11-16T22:46:23.542Z,97176.50
2022-11-16T22:48:51.569Z,97171.00
2022-11-16T22:51:26.243Z,97168.78
2022-11-16T22:54:07.282Z,97159.34
2022-11-16T22:56:34.864Z,97157.44
2022-11-16T22:59:02.528Z,97156.06
2022-11-16T23:01:30.144Z,97147.03
2022-11-16T23:03:58.356Z,97148.84
2022-11-16T23:06:26.051Z,97139.94
2022-11-16T23:08:55.862Z,97146.09
2022-11-16T23:11:44.612Z,97143.34
2022-11-16T23:14:33.752Z,97138.66
2022-11-16T23:17:02.761Z,97141.34
2022-11-16T23:19:49.619Z,97139.31
2022-11-16T23:22:40.853Z,97134.19
2022-11-16T23:25:30.054Z,97140.16
2022-11-16T23:28:13.192Z,97136.75
2022-11-16T23:30:40.909Z,97131.56
2022-11-16T23:33:09.732Z,97133.09
2022-11-16T23:35:37.533Z,97123.66
2022-11-16T23:38:07.252Z,97119.38
2022-11-16T23:40:38.718Z,97121.09
2022-11-16T23:43:49.682Z,97117.41
2022-11-16T23:46:17.258Z,97111.41
2022-11-16T23:48:44.809Z,97098.81
2022-11-16T23:51:12.355Z,97089.03
2022-11-16T23:53:39.909Z,97098.09
2022-11-16T23:56:07.609Z,97091.94
2022-11-16T23:58:35.121Z,97093.47
